Airfield :
LOGIN :

Register | Disclaimer

   EN    FR    IT 

 










Legend :    VFR   Marginal VFR   IFR   Intensive IFR   Very Intensive IFR
Visi :
Ceiling :
>= 8 km
>= 3000ft
5 to 8 km
1000 to 3000 ft
1500m to 5 km
500 to 1000 ft
800 to 1500m
200 to 500 ft
< 800m
< 200 ft
Symbols :   Thunderstorms  Fog  Heavy snow  Heavy precipitations  Wind > 20 kt
SIGMETs :     Misc.  Thunderstorms  Icing  Turbulence  Mountain Waves  Volcanic Ashes






- Airport Elevation : 204 ft
- IATA code : AGF


LFBA - Agen

CURRENT METAR :
  • 231830Z AUTO 29013KT 9999 FEW024 BKN034 OVC043 23/18 Q1011 TEMPO 31015G30KT 3000 TSGR BKN016 BKN060CB

EXPIRED METARs :
  • 231800Z AUTO 29015KT 9999 OVC029 24/18 Q1011 TEMPO 31015G30KT 3000 TSGR BKN016 BKN060CB
  • 231730Z AUTO 30016KT 9999 BKN028 OVC036 24/19 Q1010 TEMPO 31015G30KT 3000 TSGR BKN016 BKN060CB
  • 231700Z AUTO 30015KT 9999 BKN028 OVC034 26/20 Q1010 TEMPO 31015G30KT 3000 TSGR BKN016 BKN060CB
  • 231630Z AUTO 31011KT CAVOK 27/21 Q1009 TEMPO 31015G30KT 3000 TSGR BKN016 BKN060CB
  • 231600Z AUTO 32011KT CAVOK 27/21 Q1009 NOSIG

TAF TAF LFBA
Valid from the 23 at 15:00 until the 24 at 00:00 UTC


231400Z 2315/2324 32010KT CAVOK
TEMPO 2318/2324 -TSRA BKN030 BKN070CB
PROB40 2318/2321 31015G30KT 3000 TSGR BKN016 BKN060CB



MET'MAP, your aeronautical weather chart ! - Copyright ORBIFLY December 2007 - Disclaimer

ORBIFLY MET'MAP TEAM :

Programming & Development : Alexandra Zaïnal
Concept & original design : Baudouin d'Aumeries
Assistance for programming : Marc-Olivier Méhu
Technical & hardware support : Manuel Goepfert

Contact : metmap@orbifly.com




SOURCES & CREDITS :

   NOAA